Time;durP1;ratioP1;P1;durP2;ratioP2;P2;SDS_P1;SDS_P2;PMS_P1;PMS_P2;Temp;Humidity;BMP_temperature;BMP_pressure;BME280_temperature;BME280_humidity;BME280_pressure;Samples;Min_cycle;Max_cycle;Signal;HPM_P1;HPM_P2
2023/01/30 00:01:40;;;;;;;16.97;15.27;;;;;;;-0.90;92.45;92968.25;4919230;29;20201;-88
2023/01/30 00:04:05;;;;;;;17.03;15.33;;;;;;;-1.11;92.48;92958.22;4938425;29;20249;-86
2023/01/30 00:06:31;;;;;;;16.33;14.67;;;;;;;-1.19;93.73;92976.34;4918772;29;20277;-86
2023/01/30 00:08:56;;;;;;;17.33;15.53;;;;;;;-1.37;93.98;92942.91;4941614;29;20238;-83
2023/01/30 00:11:22;;;;;;;16.10;14.43;;;;;;;-1.32;93.70;92966.91;4940965;29;20198;-84
2023/01/30 00:13:49;;;;;;;19.27;14.37;;;;;;;-1.46;93.93;92965.34;4939535;29;20230;-85
2023/01/30 00:16:16;;;;;;;18.07;16.13;;;;;;;-1.40;95.07;92961.22;4936934;29;20181;-87
2023/01/30 00:18:42;;;;;;;16.60;14.87;;;;;;;-1.45;94.20;92945.66;4941880;29;20253;-86
2023/01/30 00:21:10;;;;;;;17.23;15.17;;;;;;;-1.26;94.33;92955.88;4940984;29;20254;-86
2023/01/30 00:23:36;;;;;;;16.90;14.63;;;;;;;-1.43;94.89;92946.25;4940186;29;20240;-87
2023/01/30 00:26:03;;;;;;;18.23;16.33;;;;;;;-1.41;96.21;92957.06;4936486;29;20225;-87
2023/01/30 00:28:29;;;;;;;18.70;15.37;;;;;;;-1.34;95.41;92963.78;4938142;29;20252;-86
2023/01/30 00:30:55;;;;;;;20.03;15.00;;;;;;;-1.53;94.35;92944.09;4937797;29;20919;-86
2023/01/30 00:33:23;;;;;;;18.57;15.00;;;;;;;-1.27;94.45;92959.44;4939713;29;20298;-85
2023/01/30 00:35:50;;;;;;;20.10;14.73;;;;;;;-1.28;93.62;92957.06;4939864;29;20194;-87
2023/01/30 00:38:19;;;;;;;19.73;15.57;;;;;;;-1.18;92.21;92957.47;4940432;29;20255;-88
2023/01/30 00:40:45;;;;;;;17.13;15.53;;;;;;;-1.27;94.14;92945.81;4939490;29;20189;-87
2023/01/30 00:48:43;;;;;;;27.83;20.53;;;;;;;-1.41;90.07;92921.22;4939832;29;20322;-86
2023/01/30 00:51:08;;;;;;;17.23;14.83;;;;;;;-1.29;90.58;92924.78;4940440;29;20186;-85
2023/01/30 00:53:33;;;;;;;17.60;15.77;;;;;;;-1.36;91.00;92929.09;4940632;29;20265;-86
2023/01/30 00:55:59;;;;;;;16.63;14.43;;;;;;;-1.32;91.01;92927.75;4938141;29;20186;-87
2023/01/30 00:58:24;;;;;;;15.57;14.07;;;;;;;-1.29;91.46;92932.47;4941545;29;20238;-85
2023/01/30 01:00:50;;;;;;;14.60;13.17;;;;;;;-1.31;90.71;92936.97;4940240;29;20249;-87
2023/01/30 01:03:16;;;;;;;16.00;14.47;;;;;;;-1.25;90.09;92936.97;4939227;29;20293;-88
2023/01/30 01:05:42;;;;;;;16.97;15.17;;;;;;;-1.30;90.16;92934.22;4936102;29;20602;-87
2023/01/30 01:08:07;;;;;;;17.23;14.70;;;;;;;-1.54;90.61;92929.69;4940255;29;20230;-84
2023/01/30 01:10:33;;;;;;;16.13;14.67;;;;;;;-1.58;91.66;92937.97;4919153;29;20283;-84
2023/01/30 01:12:58;;;;;;;14.87;13.57;;;;;;;-1.79;92.29;92924.41;4942629;29;20253;-86
2023/01/30 01:15:25;;;;;;;15.93;14.43;;;;;;;-1.58;91.84;92938.78;4939532;29;20209;-87
2023/01/30 01:17:50;;;;;;;16.63;14.93;;;;;;;-1.66;92.22;92939.75;4937533;29;20925;-87
2023/01/30 01:20:17;;;;;;;18.93;14.97;;;;;;;-1.66;92.91;92928.72;4939370;29;20178;-85
2023/01/30 01:22:43;;;;;;;16.30;14.37;;;;;;;-1.82;92.32;92929.13;4936682;29;20262;-88
2023/01/30 01:25:09;;;;;;;14.87;13.23;;;;;;;-1.72;92.81;92925.19;4938423;29;20185;-86
2023/01/30 01:27:36;;;;;;;17.57;15.67;;;;;;;-1.81;92.93;92926.38;4939744;29;20241;-87
2023/01/30 01:30:02;;;;;;;14.77;13.47;;;;;;;-1.75;93.12;92923.03;4937305;29;20233;-87
2023/01/30 01:32:27;;;;;;;17.07;14.13;;;;;;;-1.78;93.10;92923.44;4939152;29;20197;-87
2023/01/30 01:34:53;;;;;;;15.83;14.27;;;;;;;-1.73;93.54;92905.69;4939853;29;20289;-86
2023/01/30 01:37:18;;;;;;;17.50;15.20;;;;;;;-1.68;93.81;92911.00;4944615;29;20201;-87
2023/01/30 01:42:36;;;;;;;15.13;13.83;;;;;;;-1.42;91.59;92910.22;4932811;29;20212;-88
2023/01/30 01:45:07;;;;;;;17.47;15.20;;;;;;;-1.53;92.65;92915.94;4931044;29;20238;-91
2023/01/30 01:47:34;;;;;;;16.97;15.20;;;;;;;-1.90;92.46;92894.28;4934530;29;20277;-92
2023/01/30 01:50:00;;;;;;;16.57;14.70;;;;;;;-2.07;93.80;92895.66;4932932;29;20908;-92
2023/01/30 01:52:25;;;;;;;15.53;13.90;;;;;;;-1.88;94.86;92919.66;4932505;29;20189;-93
2023/01/30 01:54:59;;;;;;;15.63;14.10;;;;;;;-2.01;94.73;92901.78;4932980;29;20289;-93
2023/01/30 01:57:41;;;;;;;15.53;13.83;;;;;;;-2.06;94.41;92888.78;4934345;29;20261;-94
2023/01/30 02:00:10;;;;;;;14.57;13.30;;;;;;;-1.89;93.87;92910.44;4937483;29;20209;-92
2023/01/30 02:02:40;;;;;;;13.77;12.57;;;;;;;-2.07;95.13;92898.22;4918356;29;20266;-93
2023/01/30 02:05:06;;;;;;;15.27;13.63;;;;;;;-1.90;94.75;92898.63;4933023;29;20346;-92
2023/01/30 02:07:51;;;;;;;15.60;14.03;;;;;;;-1.92;95.54;92914.19;4933262;29;20202;-92
2023/01/30 02:10:21;;;;;;;15.60;14.03;;;;;;;-1.96;95.15;92902.75;4938845;29;20234;-87
2023/01/30 02:12:47;;;;;;;15.50;14.00;;;;;;;-2.12;94.72;92910.78;4939833;29;20193;-92
2023/01/30 02:15:13;;;;;;;15.13;13.60;;;;;;;-2.05;95.58;92914.16;4916910;29;20220;-93
2023/01/30 02:17:38;;;;;;;16.93;15.23;;;;;;;-2.27;95.42;92889.75;4939763;29;20205;-93
2023/01/30 02:20:26;;;;;;;14.53;13.07;;;;;;;-2.05;94.44;92923.59;4943935;29;20240;-94
2023/01/30 02:23:37;;;;;;;18.13;14.10;;;;;;;-2.05;95.32;92923.59;4934446;29;20186;-94
2023/01/30 02:26:21;;;;;;;19.93;15.27;;;;;;;-2.10;94.99;92929.28;4940236;29;20205;-90
2023/01/30 02:29:02;;;;;;;14.00;12.80;;;;;;;-2.06;95.93;92927.94;4918352;29;20242;-92
2023/01/30 02:31:51;;;;;;;13.53;12.10;;;;;;;-2.13;95.52;92919.47;4939085;29;20493;-94
2023/01/30 02:34:55;;;;;;;15.10;13.63;;;;;;;-2.13;95.03;92916.91;4937218;29;20225;-82
2023/01/30 02:37:39;;;;;;;13.63;12.33;;;;;;;-2.13;94.47;92929.69;4941170;29;20261;-90
2023/01/30 02:40:24;;;;;;;14.73;13.23;;;;;;;-2.16;95.47;92922.41;4942965;29;20292;-90
2023/01/30 02:42:49;;;;;;;14.93;13.30;;;;;;;-2.29;95.26;92921.59;4940937;29;20267;-89
2023/01/30 02:45:33;;;;;;;15.87;14.53;;;;;;;-2.34;95.29;92914.50;4941892;29;20238;-88
2023/01/30 02:48:05;;;;;;;13.63;12.40;;;;;;;-2.28;95.52;92902.72;4919626;29;20219;-90
2023/01/30 02:50:48;;;;;;;14.20;12.77;;;;;;;-2.23;94.74;92905.47;4942232;29;21007;-89
2023/01/30 02:53:14;;;;;;;14.83;13.47;;;;;;;-2.33;94.67;92890.53;4942556;29;20238;-90
2023/01/30 02:55:41;;;;;;;13.93;12.73;;;;;;;-2.32;95.04;92906.66;4940409;29;20186;-90
2023/01/30 02:58:07;;;;;;;13.77;12.57;;;;;;;-2.21;95.49;92913.75;4944061;29;20241;-88
2023/01/30 03:01:10;;;;;;;13.67;12.43;;;;;;;-2.20;94.81;92895.66;4941775;29;20194;-88
2023/01/30 03:03:55;;;;;;;13.87;12.97;;;;;;;-2.27;95.85;92910.19;4912172;29;20233;-90
2023/01/30 03:06:29;;;;;;;11.80;10.83;;;;;;;-2.17;95.62;92914.94;4942779;29;20214;-89
2023/01/30 03:09:01;;;;;;;13.50;12.27;;;;;;;-2.34;96.11;92914.50;4939040;29;20221;-89
2023/01/30 03:11:41;;;;;;;13.97;12.67;;;;;;;-2.35;95.13;92892.47;4942026;29;20178;-90
2023/01/30 03:14:17;;;;;;;13.97;12.63;;;;;;;-2.34;95.62;92904.28;4918030;29;20218;-89
2023/01/30 03:16:43;;;;;;;14.67;13.27;;;;;;;-2.39;95.75;92883.63;4934531;29;20203;-90
2023/01/30 03:19:11;;;;;;;13.30;12.13;;;;;;;-2.27;96.35;92899.97;4935404;29;20290;-90
2023/01/30 03:21:44;;;;;;;17.77;12.17;;;;;;;-2.25;96.64;92887.78;4937318;29;20229;-91
2023/01/30 03:24:10;;;;;;;13.27;11.83;;;;;;;-2.40;96.24;92884.63;4942069;29;20233;-90
2023/01/30 03:26:43;;;;;;;12.30;11.17;;;;;;;-2.54;95.20;92841.34;4942786;29;20274;-90
2023/01/30 03:29:08;;;;;;;14.30;13.00;;;;;;;-2.34;95.66;92875.38;4940390;29;20237;-88
2023/01/30 03:31:33;;;;;;;14.63;13.03;;;;;;;-2.41;95.75;92852.34;4939938;29;20217;-89
2023/01/30 03:33:59;;;;;;;15.30;12.47;;;;;;;-2.34;95.43;92863.41;4919101;29;20259;-86
2023/01/30 03:36:24;;;;;;;13.30;11.57;;;;;;;-2.39;95.47;92867.50;4942172;29;20218;-89
2023/01/30 03:38:51;;;;;;;13.90;12.80;;;;;;;-2.45;95.32;92851.19;4938533;29;20266;-90
2023/01/30 03:41:16;;;;;;;13.67;12.40;;;;;;;-2.46;95.36;92861.59;4945521;29;20190;-89
2023/01/30 03:43:42;;;;;;;13.73;12.50;;;;;;;-2.44;95.21;92845.09;4942095;29;20230;-91
2023/01/30 03:46:07;;;;;;;14.27;12.77;;;;;;;-2.43;94.91;92854.31;4939169;29;20194;-88
2023/01/30 03:48:32;;;;;;;15.23;12.30;;;;;;;-2.25;95.19;92872.44;4944162;29;20422;-91
2023/01/30 03:50:58;;;;;;;13.10;11.97;;;;;;;-2.43;95.22;92864.53;4945443;29;20206;-88
2023/01/30 03:53:23;;;;;;;14.00;12.80;;;;;;;-2.52;94.69;92837.59;4942126;29;20297;-88
2023/01/30 03:55:48;;;;;;;22.13;14.70;;;;;;;-2.42;95.42;92861.03;4944470;29;20265;-90
2023/01/30 03:58:14;;;;;;;15.23;13.73;;;;;;;-2.36;94.37;92873.00;4945638;29;20268;-89
2023/01/30 04:00:39;;;;;;;14.07;12.67;;;;;;;-2.25;94.91;92867.31;4939830;29;20214;-92
2023/01/30 04:03:05;;;;;;;13.53;12.23;;;;;;;-2.30;94.60;92874.78;4939117;29;20234;-88
2023/01/30 04:05:30;;;;;;;13.30;11.90;;;;;;;-2.36;94.76;92854.31;4939353;29;20210;-89
2023/01/30 04:07:56;;;;;;;13.77;12.50;;;;;;;-2.34;94.97;92852.38;4939595;29;20220;-87
2023/01/30 04:10:22;;;;;;;12.57;11.53;;;;;;;-2.39;94.45;92845.28;4933945;29;20214;-87
2023/01/30 04:12:48;;;;;;;14.77;13.23;;;;;;;-2.40;94.62;92842.94;4940130;29;20190;-87
2023/01/30 04:15:13;;;;;;;12.67;11.73;;;;;;;-2.27;94.46;92840.38;4942330;29;20198;-88
2023/01/30 04:17:38;;;;;;;15.03;13.43;;;;;;;-2.36;94.45;92850.00;4918008;29;20218;-83
2023/01/30 04:20:05;;;;;;;15.23;13.63;;;;;;;-2.35;94.40;92855.91;4938571;29;20221;-85
2023/01/30 04:22:30;;;;;;;13.93;12.60;;;;;;;-2.44;93.94;92826.41;4943055;29;20190;-88
2023/01/30 04:24:55;;;;;;;14.80;13.47;;;;;;;-2.36;93.85;92852.56;4937204;29;20284;-88
2023/01/30 04:27:21;;;;;;;13.03;12.00;;;;;;;-2.34;94.33;92862.59;4942293;29;20246;-87
2023/01/30 04:29:46;;;;;;;13.67;12.07;;;;;;;-2.42;93.50;92855.91;4917688;29;20254;-88
2023/01/30 04:32:11;;;;;;;13.40;12.13;;;;;;;-2.29;93.88;92863.56;4917253;29;20190;-88
2023/01/30 04:34:37;;;;;;;15.07;11.63;;;;;;;-2.27;94.19;92860.81;4933228;29;20218;-88
2023/01/30 04:37:02;;;;;;;13.50;12.20;;;;;;;-2.27;94.36;92850.59;4934516;29;20194;-88
2023/01/30 04:39:28;;;;;;;12.67;11.37;;;;;;;-2.35;93.45;92838.78;4934035;29;20242;-88
2023/01/30 04:41:53;;;;;;;14.90;13.60;;;;;;;-2.36;94.81;92839.78;4945348;29;20196;-88
2023/01/30 04:44:18;;;;;;;13.83;12.37;;;;;;;-2.49;94.44;92821.09;4939550;29;20242;-88
2023/01/30 04:46:44;;;;;;;15.60;14.07;;;;;;;-2.12;93.34;92849.41;4939316;29;20214;-87
2023/01/30 04:49:10;;;;;;;15.47;13.67;;;;;;;-2.39;94.01;92845.28;4941283;29;20281;-84
2023/01/30 04:51:35;;;;;;;17.13;13.20;;;;;;;-2.26;95.05;92840.19;4937361;29;20200;-81
2023/01/30 04:54:01;;;;;;;14.60;13.20;;;;;;;-2.29;93.86;92840.56;4939593;29;20222;-80
2023/01/30 04:56:26;;;;;;;13.80;12.47;;;;;;;-2.39;94.20;92834.28;4942303;29;20201;-82
2023/01/30 04:58:52;;;;;;;15.90;13.90;;;;;;;-2.47;94.54;92821.69;4939353;29;20237;-82
2023/01/30 05:01:22;;;;;;;14.90;13.50;;;;;;;-2.13;94.75;92837.63;4908784;29;20202;-72
2023/01/30 05:03:52;;;;;;;13.93;12.73;;;;;;;-2.14;94.15;92833.50;4936773;29;20245;-74
2023/01/30 05:06:18;;;;;;;14.77;13.23;;;;;;;-2.07;94.68;92834.28;4937669;29;20190;-75
2023/01/30 05:08:47;;;;;;;14.53;13.03;;;;;;;-2.01;94.24;92833.50;4936642;29;20222;-74
2023/01/30 05:11:12;;;;;;;14.50;13.10;;;;;;;-2.27;94.14;92823.28;4938958;29;20258;-74
2023/01/30 05:13:38;;;;;;;16.40;14.37;;;;;;;-2.15;95.42;92838.81;4935090;29;20249;-70
2023/01/30 05:16:03;;;;;;;16.33;14.67;;;;;;;-2.21;96.07;92802.03;4938349;29;20906;-75
2023/01/30 05:18:29;;;;;;;17.90;14.83;;;;;;;-1.79;96.14;92832.28;4938894;29;20701;-73
2023/01/30 05:21:05;;;;;;;16.43;14.67;;;;;;;-1.62;95.99;92825.75;4937285;29;20190;-70
2023/01/30 05:23:31;;;;;;;19.10;14.93;;;;;;;-1.63;96.39;92835.44;4937195;29;20232;-80
2023/01/30 05:25:57;;;;;;;17.27;15.47;;;;;;;-1.58;96.06;92838.16;4933325;29;20194;-74
2023/01/30 05:28:22;;;;;;;20.20;14.60;;;;;;;-2.00;97.96;92845.31;4935844;29;20786;-74
2023/01/30 05:30:48;;;;;;;19.80;15.60;;;;;;;-2.17;98.73;92853.56;4916800;29;20201;-74
2023/01/30 05:33:13;;;;;;;17.17;14.27;;;;;;;-2.05;98.02;92847.66;4931482;29;20233;-73
2023/01/30 05:35:45;;;;;;;16.20;14.53;;;;;;;-2.06;96.09;92835.88;4930872;29;20205;-76
2023/01/30 05:38:10;;;;;;;16.37;14.63;;;;;;;-2.14;95.88;92843.75;4931212;29;20226;-74
2023/01/30 05:40:36;;;;;;;18.47;15.63;;;;;;;-2.42;94.65;92825.25;4938810;29;20198;-81
2023/01/30 05:43:01;;;;;;;18.57;15.07;;;;;;;-2.27;93.99;92817.34;4939513;29;20230;-76
2023/01/30 05:45:26;;;;;;;15.03;13.50;;;;;;;-2.07;94.71;92829.16;4938553;29;20241;-75
2023/01/30 05:47:52;;;;;;;17.73;15.90;;;;;;;-1.80;94.75;92835.06;4937509;29;20214;-76
2023/01/30 05:50:17;;;;;;;19.40;15.30;;;;;;;-1.96;93.82;92822.69;4939222;29;20208;-75
2023/01/30 05:52:43;;;;;;;18.07;14.77;;;;;;;-2.04;92.34;92849.22;4937839;29;20282;-75
2023/01/30 05:55:08;;;;;;;17.13;15.37;;;;;;;-1.82;93.03;92847.25;4939608;29;20213;-76
2023/01/30 05:57:34;;;;;;;21.03;15.53;;;;;;;-1.95;93.14;92837.03;4939789;29;20193;-75
2023/01/30 05:59:59;;;;;;;15.87;13.70;;;;;;;-2.03;93.15;92850.03;4935557;29;20296;-76
2023/01/30 06:02:24;;;;;;;17.63;15.73;;;;;;;-2.14;92.77;92843.75;4937987;29;20208;-75
2023/01/30 06:04:50;;;;;;;21.10;15.83;;;;;;;-2.04;92.86;92868.91;4939835;29;20229;-75
2023/01/30 06:07:15;;;;;;;20.10;15.10;;;;;;;-2.09;93.84;92856.72;4935458;29;20218;-76
2023/01/30 06:09:41;;;;;;;19.57;15.40;;;;;;;-2.06;93.29;92863.22;4938013;29;20226;-76
2023/01/30 06:12:06;;;;;;;18.50;16.13;;;;;;;-2.18;94.92;92852.75;4941977;29;20220;-76
2023/01/30 06:14:32;;;;;;;19.73;15.60;;;;;;;-2.33;96.41;92821.50;4936204;29;20254;-75
2023/01/30 06:16:57;;;;;;;20.33;14.83;;;;;;;-2.04;96.55;92851.78;4935995;29;20188;-75
2023/01/30 06:19:22;;;;;;;19.20;15.00;;;;;;;-2.08;94.98;92850.63;4937859;29;20265;-76
2023/01/30 06:21:48;;;;;;;20.10;15.23;;;;;;;-2.03;95.51;92845.72;4915763;29;20183;-76
2023/01/30 06:24:13;;;;;;;21.90;16.43;;;;;;;-2.02;96.02;92843.91;4915600;29;20225;-76
2023/01/30 06:26:39;;;;;;;28.90;18.83;;;;;;;-1.89;94.56;92834.50;4934925;29;20221;-75
2023/01/30 06:29:04;;;;;;;24.17;17.27;;;;;;;-1.93;94.46;92830.72;4938122;29;20234;-75
2023/01/30 06:31:29;;;;;;;21.73;15.60;;;;;;;-2.28;95.23;92821.72;4937426;29;20209;-76
2023/01/30 06:33:55;;;;;;;16.33;13.77;;;;;;;-2.11;94.69;92838.22;4938694;29;20229;-76
2023/01/30 06:36:20;;;;;;;21.50;14.97;;;;;;;-2.36;95.25;92818.53;4940530;29;20222;-76
2023/01/30 06:38:45;;;;;;;22.10;16.10;;;;;;;-2.21;95.51;92832.72;4932311;29;20266;-76
2023/01/30 06:41:11;;;;;;;19.47;14.80;;;;;;;-2.29;95.49;92830.34;4933747;29;20186;-75
2023/01/30 06:43:36;;;;;;;20.27;16.07;;;;;;;-2.19;95.63;92842.72;4938086;29;20310;-75
2023/01/30 06:46:01;;;;;;;19.50;15.73;;;;;;;-2.37;95.33;92838.22;4936690;29;20186;-76
2023/01/30 06:48:27;;;;;;;16.67;14.97;;;;;;;-2.19;95.86;92851.19;4938148;29;20234;-75
2023/01/30 06:50:52;;;;;;;14.93;13.53;;;;;;;-2.24;95.35;92847.69;4935576;29;20182;-76
2023/01/30 06:53:18;;;;;;;19.43;15.17;;;;;;;-2.18;95.89;92859.66;4939385;29;20248;-75
2023/01/30 06:55:43;;;;;;;28.53;25.87;;;;;;;-2.28;96.65;92862.59;4937617;29;20216;-76
2023/01/30 06:58:11;;;;;;;22.30;16.97;;;;;;;-2.21;98.06;92853.16;4936280;29;20238;-75
2023/01/30 07:00:41;;;;;;;20.60;17.03;;;;;;;-2.01;100.00;92850.63;4937789;29;20182;-76
2023/01/30 07:03:15;;;;;;;22.17;17.50;;;;;;;-2.08;100.00;92858.28;4939968;29;20330;-75
2023/01/30 07:05:42;;;;;;;27.53;17.77;;;;;;;-2.03;100.00;92863.59;4915091;29;20194;-75
2023/01/30 07:08:08;;;;;;;22.20;16.33;;;;;;;-2.06;100.00;92858.88;4914939;29;20226;-76
2023/01/30 07:10:34;;;;;;;28.33;17.17;;;;;;;-2.28;100.00;92852.38;4933717;29;20221;-76
2023/01/30 07:13:00;;;;;;;26.40;17.07;;;;;;;-2.16;100.00;92835.47;4940691;29;20190;-76
2023/01/30 07:15:25;;;;;;;30.50;20.10;;;;;;;-2.33;100.00;92838.59;4916007;29;20205;-76
2023/01/30 07:17:51;;;;;;;22.87;17.50;;;;;;;-2.19;100.00;92851.19;4939385;29;20186;-76
2023/01/30 07:20:16;;;;;;;24.27;16.33;;;;;;;-2.15;100.00;92867.72;4937985;29;20211;-76
2023/01/30 07:22:42;;;;;;;25.20;20.37;;;;;;;-2.29;100.00;92866.13;4940642;29;20273;-75
2023/01/30 07:25:08;;;;;;;31.67;19.03;;;;;;;-2.19;100.00;92871.66;4942325;29;20190;-76
2023/01/30 07:27:33;;;;;;;32.57;18.70;;;;;;;-2.40;100.00;92850.59;4945225;29;20213;-75
2023/01/30 07:29:58;;;;;;;25.17;19.03;;;;;;;-2.21;100.00;92883.84;4941662;29;20217;-76
2023/01/30 07:32:24;;;;;;;33.10;21.43;;;;;;;-2.22;100.00;92866.94;4942934;29;20253;-76
2023/01/30 07:34:49;;;;;;;21.00;16.83;;;;;;;-2.21;100.00;92877.97;4941435;29;20224;-76
2023/01/30 07:37:15;;;;;;;26.43;18.33;;;;;;;-2.15;99.85;92877.94;4943933;29;20217;-75
2023/01/30 07:39:40;;;;;;;21.17;17.10;;;;;;;-2.19;98.25;92889.56;4941149;29;20225;-75
2023/01/30 07:42:06;;;;;;;17.53;15.87;;;;;;;-2.14;98.37;92888.97;4940706;29;20186;-76
2023/01/30 07:44:33;;;;;;;22.70;16.30;;;;;;;-2.25;97.74;92892.91;4939498;29;20361;-75
2023/01/30 07:46:58;;;;;;;23.40;16.87;;;;;;;-2.17;98.04;92881.69;4939010;29;20222;-80
2023/01/30 07:49:24;;;;;;;23.60;16.33;;;;;;;-1.98;98.73;92881.69;4940813;29;20229;-70
2023/01/30 07:51:49;;;;;;;25.97;16.83;;;;;;;-2.00;99.01;92886.22;4941000;29;20198;-71
2023/01/30 07:54:15;;;;;;;25.67;19.07;;;;;;;-2.28;98.55;92875.38;4932349;29;20229;-75
2023/01/30 07:56:40;;;;;;;28.80;17.60;;;;;;;-1.97;97.67;92879.94;4939490;29;20204;-73
2023/01/30 07:59:06;;;;;;;20.20;17.40;;;;;;;-1.82;96.58;92881.31;4939408;29;20245;-73
2023/01/30 08:01:31;;;;;;;19.53;16.80;;;;;;;-1.96;93.83;92864.38;4941752;29;20190;-73
2023/01/30 08:03:57;;;;;;;22.33;17.17;;;;;;;-1.92;93.53;92859.66;4939847;29;20226;-73
2023/01/30 08:06:22;;;;;;;21.37;16.10;;;;;;;-1.67;91.93;92856.28;4939021;29;20193;-73
2023/01/30 08:08:48;;;;;;;18.90;15.13;;;;;;;-1.48;91.94;92851.34;4933574;29;20222;-71
2023/01/30 08:11:14;;;;;;;22.83;16.77;;;;;;;-1.69;91.86;92837.81;4940827;29;20190;-73
2023/01/30 08:13:39;;;;;;;19.50;16.63;;;;;;;-1.66;92.51;92850.19;4940987;29;20225;-74
2023/01/30 08:16:06;;;;;;;22.40;16.60;;;;;;;-1.48;92.86;92853.91;4913785;29;20223;-78
2023/01/30 08:18:33;;;;;;;23.07;18.77;;;;;;;-1.27;92.10;92846.75;4932185;29;20354;-77
2023/01/30 08:21:04;;;;;;;21.57;16.23;;;;;;;-1.30;91.82;92841.25;4915844;29;20198;-77
2023/01/30 08:23:30;;;;;;;21.33;16.33;;;;;;;-1.19;91.48;92832.94;4936501;29;20233;-74
2023/01/30 08:25:57;;;;;;;20.33;16.63;;;;;;;-1.06;91.57;92851.59;4938232;29;20201;-74
2023/01/30 08:28:23;;;;;;;22.30;16.03;;;;;;;-1.25;91.06;92851.69;4938954;29;20932;-74
2023/01/30 08:30:48;;;;;;;20.87;16.33;;;;;;;-1.51;91.41;92833.81;4938927;29;20190;-73
2023/01/30 08:33:17;;;;;;;17.77;14.87;;;;;;;-1.08;89.46;92837.44;4940365;29;20297;-73
2023/01/30 08:35:42;;;;;;;18.53;16.73;;;;;;;-1.12;88.83;92833.72;4940849;29;20229;-74
2023/01/30 08:38:08;;;;;;;17.93;16.13;;;;;;;-1.16;88.45;92809.47;4935091;29;20233;-74
2023/01/30 08:40:34;;;;;;;15.93;14.37;;;;;;;-1.06;89.83;92827.78;4935410;29;20190;-73
2023/01/30 08:43:00;;;;;;;18.77;16.77;;;;;;;-1.11;88.33;92825.84;4936001;29;20200;-71
2023/01/30 08:45:26;;;;;;;20.13;15.60;;;;;;;-1.14;88.88;92820.31;4940835;29;20233;-75
2023/01/30 08:47:51;;;;;;;18.63;15.90;;;;;;;-1.28;87.06;92824.72;4936311;29;20218;-76
2023/01/30 08:50:17;;;;;;;18.87;14.70;;;;;;;-1.34;86.74;92805.03;4937693;29;20265;-77
2023/01/30 08:52:42;;;;;;;20.87;15.33;;;;;;;-1.14;85.79;92815.19;4935696;29;20622;-75
2023/01/30 08:55:08;;;;;;;23.90;16.47;;;;;;;-0.82;86.54;92829.63;4936765;29;20257;-76
2023/01/30 08:57:34;;;;;;;19.13;15.53;;;;;;;-0.86;87.08;92818.22;4916072;29;20262;-76
2023/01/30 08:59:59;;;;;;;16.63;15.03;;;;;;;-0.81;86.34;92805.59;4935340;29;20221;-76
2023/01/30 09:02:25;;;;;;;19.47;15.07;;;;;;;-1.17;87.79;92813.84;4937965;29;20198;-76
2023/01/30 09:04:50;;;;;;;22.93;16.77;;;;;;;-0.84;86.57;92813.69;4939114;29;20296;-78
2023/01/30 09:07:15;;;;;;;19.57;15.40;;;;;;;-0.98;84.56;92799.38;4938507;29;20229;-86
2023/01/30 09:09:41;;;;;;;20.57;15.33;;;;;;;-0.69;84.24;92811.63;4937596;29;20236;-85
2023/01/30 09:12:06;;;;;;;16.70;14.43;;;;;;;-0.69;82.67;92801.38;4936560;29;20190;-87
2023/01/30 09:14:31;;;;;;;14.93;13.47;;;;;;;-0.72;82.23;92809.47;4936901;29;20289;-84
2023/01/30 09:16:57;;;;;;;16.93;15.13;;;;;;;-0.85;82.72;92804.41;4936487;29;20842;-84
2023/01/30 09:19:27;;;;;;;17.67;15.47;;;;;;;-0.76;81.29;92803.19;4939257;29;20262;-87
2023/01/30 09:21:53;;;;;;;20.43;16.07;;;;;;;-0.68;79.63;92746.56;4917304;29;20257;-88
2023/01/30 09:24:19;;;;;;;19.77;15.97;;;;;;;-0.51;82.47;92806.56;4936409;29;20245;-76
2023/01/30 09:26:45;;;;;;;16.30;14.70;;;;;;;-0.46;80.98;92799.06;4934741;29;20212;-83
2023/01/30 09:29:14;;;;;;;15.00;13.70;;;;;;;-0.29;78.52;92805.25;4935452;29;20254;-83
2023/01/30 09:31:39;;;;;;;14.83;13.17;;;;;;;-0.60;78.01;92787.31;4935426;29;20202;-79
2023/01/30 09:34:05;;;;;;;14.90;13.37;;;;;;;-0.52;79.64;92794.75;4936459;29;20229;-85
2023/01/30 09:36:31;;;;;;;15.97;14.27;;;;;;;-1.03;80.14;92765.91;4936310;29;20188;-85
2023/01/30 09:38:56;;;;;;;18.57;13.37;;;;;;;-0.14;79.99;92790.34;4935392;29;20232;-83
2023/01/30 09:41:37;;;;;;;15.10;13.53;;;;;;;-0.10;79.24;92786.38;4935615;29;20189;-80
2023/01/30 09:44:31;;;;;;;13.37;12.07;;;;;;;-0.18;77.34;92786.63;4936056;29;20264;-85
2023/01/30 09:47:13;;;;;;;16.13;14.80;;;;;;;-0.40;78.83;92788.75;4937122;29;20209;-80
2023/01/30 09:50:10;;;;;;;15.27;13.30;;;;;;;-0.18;78.32;92779.72;4940202;29;20305;-80
2023/01/30 09:52:54;;;;;;;15.17;13.83;;;;;;;-0.32;76.90;92777.47;4906360;29;20197;-78
2023/01/30 09:55:24;;;;;;;14.73;13.33;;;;;;;0.04;79.00;92780.13;4933281;29;20226;-73
2023/01/30 09:57:51;;;;;;;15.07;13.57;;;;;;;-0.04;77.04;92765.00;4938150;29;20194;-72
2023/01/30 10:00:27;;;;;;;16.10;14.43;;;;;;;-0.06;76.69;92765.22;4939272;29;20182;-72
2023/01/30 10:03:03;;;;;;;15.93;14.33;;;;;;;-0.21;77.67;92718.59;4937369;29;20197;-76
2023/01/30 10:05:55;;;;;;;14.17;12.87;;;;;;;-0.26;78.40;92774.06;4937516;29;20258;-74
2023/01/30 10:08:33;;;;;;;14.53;13.03;;;;;;;-0.35;78.02;92760.72;4937024;29;20234;-74
2023/01/30 10:11:22;;;;;;;15.03;13.53;;;;;;;-0.63;79.23;92757.78;4938942;29;20185;-73
2023/01/30 10:14:13;;;;;;;16.33;14.73;;;;;;;-0.56;77.15;92747.47;4939120;29;20246;-71
2023/01/30 10:16:38;;;;;;;18.33;15.00;;;;;;;-0.11;82.65;92741.19;4937035;29;20201;-73
2023/01/30 10:19:22;;;;;;;17.73;15.57;;;;;;;-0.51;87.55;92729.66;4917089;29;20257;-74
2023/01/30 10:22:22;;;;;;;15.13;13.63;;;;;;;-0.39;88.78;92731.34;4931656;29;20189;-73
2023/01/30 10:25:21;;;;;;;18.07;16.37;;;;;;;-0.35;88.37;92727.38;4916899;29;20229;-73
2023/01/30 10:27:54;;;;;;;17.67;14.93;;;;;;;-0.52;88.26;92698.13;4929956;29;20226;-73
2023/01/30 10:30:20;;;;;;;17.13;14.67;;;;;;;-0.51;87.48;92721.97;4936811;29;20189;-74
2023/01/30 10:32:52;;;;;;;16.50;14.40;;;;;;;0.00;87.49;92707.16;4938816;29;20249;-80
2023/01/30 10:35:21;;;;;;;17.13;14.63;;;;;;;-0.52;88.81;92707.59;4936696;29;21079;-74
2023/01/30 10:38:11;;;;;;;16.43;14.73;;;;;;;-0.40;88.52;92701.59;4936222;29;20250;-74
2023/01/30 10:40:59;;;;;;;16.83;14.50;;;;;;;-0.73;89.12;92693.34;4941409;29;20202;-73
2023/01/30 10:43:31;;;;;;;25.57;16.73;;;;;;;-1.04;90.30;92679.81;4889758;29;20240;-74
2023/01/30 10:46:09;;;;;;;16.10;14.30;;;;;;;-1.26;91.18;92691.34;4913560;29;20198;-74
2023/01/30 10:48:46;;;;;;;24.23;15.47;;;;;;;-0.69;89.95;92680.91;4914425;29;20242;-73
2023/01/30 10:51:26;;;;;;;21.77;16.50;;;;;;;-0.63;88.48;92680.88;4912967;29;20257;-74
2023/01/30 10:53:58;;;;;;;18.93;15.43;;;;;;;-1.11;89.12;92661.91;4913226;29;20242;-74
2023/01/30 10:56:30;;;;;;;17.93;15.63;;;;;;;-1.02;89.79;92667.56;4912031;29;20202;-74
2023/01/30 10:59:22;;;;;;;15.77;14.17;;;;;;;-0.87;90.20;92652.69;4914589;29;20230;-74
2023/01/30 11:01:57;;;;;;;16.60;14.83;;;;;;;-0.82;88.80;92652.81;4917982;29;20233;-74
2023/01/30 11:04:43;;;;;;;18.23;16.13;;;;;;;-0.75;89.01;92645.88;4916628;29;20277;-74
2023/01/30 11:07:10;;;;;;;16.70;14.57;;;;;;;-0.61;87.05;92631.97;4917533;29;20233;-74
2023/01/30 11:09:41;;;;;;;18.17;16.17;;;;;;;-0.62;87.27;92608.09;4917130;29;20309;-74
2023/01/30 11:12:06;;;;;;;18.00;14.90;;;;;;;-0.89;87.21;92599.09;4916447;29;20199;-74
2023/01/30 11:14:57;;;;;;;21.10;15.47;;;;;;;-0.77;88.17;92632.47;4915640;29;20235;-74
2023/01/30 11:17:31;;;;;;;22.07;15.90;;;;;;;-0.84;88.39;92613.84;4917571;29;20190;-74
2023/01/30 11:20:01;;;;;;;18.00;16.20;;;;;;;-1.26;88.15;92588.94;4915815;29;20238;-74
2023/01/30 11:22:28;;;;;;;18.90;15.97;;;;;;;-0.80;87.63;92625.22;4916641;29;20224;-74
2023/01/30 11:25:01;;;;;;;16.83;15.13;;;;;;;-0.51;86.41;92596.34;4917188;29;20222;-74
2023/01/30 11:27:30;;;;;;;18.97;15.90;;;;;;;-0.70;85.94;92582.75;4905482;29;20210;-74
2023/01/30 11:30:13;;;;;;;23.23;16.23;;;;;;;-0.62;86.19;92605.53;4914682;29;20782;-74
2023/01/30 11:32:41;;;;;;;21.70;15.80;;;;;;;-0.71;86.82;92595.75;4916078;29;20186;-74
2023/01/30 11:35:06;;;;;;;15.47;13.77;;;;;;;-0.28;85.63;92599.88;4915903;29;20199;-75